Time;durP1;ratioP1;P1;durP2;ratioP2;P2;SDS_P1;SDS_P2;PMS_P1;PMS_P2;Temp;Humidity;BMP_temperature;BMP_pressure;BME280_temperature;BME280_humidity;BME280_pressure;Samples;Min_cycle;Max_cycle;Signal;HPM_P1;HPM_P2
2023/02/21 02:15:00;;;;;;;0.17;0.13;;;;;;;;;;4128982;28;19921;-40
2023/02/21 02:17:13;;;;;;;0.38;0.28;;;;;;;;;;4128926;28;20413;-40
2023/02/21 02:19:46;;;;;;;0.30;0.10;;;;;;;;;;4152039;28;20119;-40
2023/02/21 02:22:05;;;;;;;0.13;0.10;;;;;;;;;;4146033;28;20053;-40
2023/02/21 02:24:29;;;;;;;0.10;0.10;;;;;;;;;;4146017;28;20321;-40
2023/02/21 02:26:48;;;;;;;0.73;0.10;;;;;;;;;;4112758;28;20101;-41
2023/02/21 02:29:02;;;;;;;;;;;;;;;;;;4146864;28;20092;-40
2023/02/21 02:31:22;;;;;;;0.30;0.28;;;;;;;;;;4129022;28;19976;-40
2023/02/21 02:33:44;;;;;;;0.25;0.20;;;;;;;;;;4128926;28;20081;-40
2023/02/21 02:35:52;;;;;;;0.30;0.20;;;;;;;;;;4129011;28;20089;-40
2023/02/21 02:38:19;;;;;;;0.20;0.20;;;;;;;;;;4112948;28;20054;-40
2023/02/21 02:40:33;;;;;;;0.28;0.15;;;;;;;;;;4126355;28;20062;-40
2023/02/21 02:42:39;;;;;;;0.13;0.13;;;;;;;;;;4128581;28;20518;-40
2023/02/21 02:44:42;;;;;;;0.10;0.10;;;;;;;;;;4129194;28;20059;-40
2023/02/21 02:46:44;;;;;;;0.10;0.10;;;;;;;;;;4112594;28;20047;-41
2023/02/21 02:48:57;;;;;;;0.17;0.17;;;;;;;;;;4128344;28;20057;-40
2023/02/21 02:51:01;;;;;;;0.17;0.17;;;;;;;;;;4146217;28;20057;-40
2023/02/21 02:53:03;;;;;;;0.08;0.08;;;;;;;;;;4096436;28;20436;-40
2023/02/21 02:55:21;;;;;;;0.10;0.10;;;;;;;;;;4128638;28;20054;-40
2023/02/21 02:57:23;;;;;;;0.20;0.10;;;;;;;;;;4128676;28;20391;-40
2023/02/21 02:59:28;;;;;;;0.10;0.10;;;;;;;;;;4113013;28;20059;-40
2023/02/21 03:01:50;;;;;;;0.15;0.10;;;;;;;;;;4128136;28;20109;-40
2023/02/21 03:03:57;;;;;;;0.28;0.10;;;;;;;;;;4117412;28;20105;-39
2023/02/21 03:06:25;;;;;;;0.10;0.10;;;;;;;;;;4112279;28;20495;-39
2023/02/21 03:08:30;;;;;;;0.17;0.10;;;;;;;;;;4126770;28;20054;-40
2023/02/21 03:11:01;;;;;;;0.20;0.10;;;;;;;;;;4128846;28;20050;-40
2023/02/21 03:13:37;;;;;;;0.38;0.20;;;;;;;;;;4127381;28;20418;-40
2023/02/21 03:15:47;;;;;;;0.22;0.10;;;;;;;;;;4112579;28;20059;-40
2023/02/21 03:17:55;;;;;;;0.10;0.10;;;;;;;;;;4112374;28;20129;-39
2023/02/21 03:19:57;;;;;;;0.25;0.10;;;;;;;;;;4129591;28;20058;-40
2023/02/21 03:22:01;;;;;;;0.30;0.10;;;;;;;;;;4096182;29;20106;-41
2023/02/21 03:24:04;;;;;;;0.20;0.13;;;;;;;;;;4105227;28;20058;-40
2023/02/21 03:26:08;;;;;;;0.50;0.10;;;;;;;;;;4096457;28;20569;-40
2023/02/21 03:28:11;;;;;;;0.45;0.20;;;;;;;;;;4096684;28;20055;-40
2023/02/21 03:30:14;;;;;;;0.20;0.10;;;;;;;;;;4096896;28;20059;-40
2023/02/21 03:34:24;;;;;;;0.10;0.05;;;;;;;;;;4132636;28;20058;-40
2023/02/21 03:36:28;;;;;;;0.20;0.10;;;;;;;;;;4114448;28;20110;-40
2023/02/21 03:38:30;;;;;;;0.28;0.20;;;;;;;;;;4099604;28;20168;-40
2023/02/21 03:40:32;;;;;;;0.10;0.10;;;;;;;;;;4115169;28;20197;-40
2023/02/21 03:42:35;;;;;;;0.17;0.00;;;;;;;;;;4115234;28;20058;-40
2023/02/21 03:44:37;;;;;;;0.17;0.17;;;;;;;;;;4115229;28;20074;-40
2023/02/21 03:46:39;;;;;;;0.40;0.20;;;;;;;;;;4115047;28;20090;-40
2023/02/21 03:48:41;;;;;;;0.10;0.10;;;;;;;;;;4098831;28;20058;-40
2023/02/21 03:50:51;;;;;;;0.00;0.00;;;;;;;;;;4115142;28;20059;-40
2023/02/21 03:52:54;;;;;;;0.10;0.10;;;;;;;;;;4114683;28;20058;-40
2023/02/21 03:54:57;;;;;;;0.17;0.10;;;;;;;;;;4114965;28;20058;-40
2023/02/21 03:57:00;;;;;;;0.82;0.20;;;;;;;;;;4115355;28;20046;-40
2023/02/21 03:59:04;;;;;;;0.10;0.10;;;;;;;;;;4115040;28;20518;-41
2023/02/21 04:01:05;;;;;;;0.15;0.10;;;;;;;;;;4131763;28;20062;-41
2023/02/21 04:03:07;;;;;;;0.10;0.10;;;;;;;;;;4114983;28;20437;-40
2023/02/21 04:05:15;;;;;;;0.10;0.10;;;;;;;;;;4114906;28;20094;-41
2023/02/21 04:07:19;;;;;;;0.28;0.17;;;;;;;;;;4114512;28;20054;-41
2023/02/21 04:09:22;;;;;;;0.10;0.03;;;;;;;;;;4114691;28;20109;-41
2023/02/21 04:11:23;;;;;;;0.20;0.10;;;;;;;;;;4114552;28;20066;-41
2023/02/21 04:13:27;;;;;;;0.10;0.10;;;;;;;;;;4117217;28;20051;-41
2023/02/21 04:15:30;;;;;;;0.15;0.10;;;;;;;;;;4130817;28;20121;-41
2023/02/21 04:17:31;;;;;;;0.30;0.00;;;;;;;;;;4130677;28;20042;-40
2023/02/21 04:19:34;;;;;;;0.10;0.10;;;;;;;;;;4130720;28;20054;-40
2023/02/21 04:21:37;;;;;;;0.10;0.10;;;;;;;;;;4130407;28;20569;-41
2023/02/21 04:23:39;;;;;;;0.17;0.13;;;;;;;;;;4130692;28;20054;-41
2023/02/21 04:25:41;;;;;;;0.10;0.10;;;;;;;;;;4130595;28;20058;-41
2023/02/21 04:27:48;;;;;;;0.22;0.10;;;;;;;;;;4115588;28;20059;-41
2023/02/21 04:29:50;;;;;;;0.20;0.10;;;;;;;;;;4130815;28;20478;-41
2023/02/21 04:31:51;;;;;;;0.40;0.10;;;;;;;;;;4130417;28;20101;-41
2023/02/21 04:33:53;;;;;;;0.17;0.10;;;;;;;;;;4146415;28;20053;-40
2023/02/21 04:35:58;;;;;;;0.47;0.10;;;;;;;;;;4115132;28;20057;-41
2023/02/21 04:38:08;;;;;;;0.10;0.10;;;;;;;;;;4130476;28;20090;-41
2023/02/21 04:40:09;;;;;;;0.13;0.13;;;;;;;;;;4130551;28;20097;-41
2023/02/21 04:42:10;;;;;;;0.13;0.10;;;;;;;;;;4133988;28;20565;-41
2023/02/21 04:44:12;;;;;;;0.10;0.10;;;;;;;;;;4129768;28;20089;-40
2023/02/21 04:46:15;;;;;;;0.10;0.10;;;;;;;;;;4130206;28;20050;-41
2023/02/21 04:48:17;;;;;;;0.05;0.05;;;;;;;;;;4113885;28;20058;-40
2023/02/21 04:50:18;;;;;;;0.13;0.10;;;;;;;;;;4147505;28;20058;-40
2023/02/21 04:52:20;;;;;;;0.17;0.00;;;;;;;;;;4147265;28;20058;-40
2023/02/21 04:54:21;;;;;;;0.10;0.10;;;;;;;;;;4147793;28;20049;-41
2023/02/21 04:56:26;;;;;;;0.10;0.10;;;;;;;;;;4130402;28;20167;-41
2023/02/21 04:58:27;;;;;;;0.10;0.10;;;;;;;;;;4147359;28;20413;-41
2023/02/21 05:00:29;;;;;;;0.10;0.10;;;;;;;;;;4147532;28;20486;-41
2023/02/21 05:02:30;;;;;;;0.10;0.10;;;;;;;;;;4147508;28;20107;-41
2023/02/21 05:04:31;;;;;;;0.25;0.10;;;;;;;;;;4147501;28;20453;-40
2023/02/21 05:06:33;;;;;;;0.30;0.13;;;;;;;;;;4146432;28;20058;-40
2023/02/21 05:08:34;;;;;;;0.10;0.10;;;;;;;;;;4147574;28;20053;-39
2023/02/21 05:10:36;;;;;;;0.35;0.17;;;;;;;;;;4147293;28;20489;-40
2023/02/21 05:12:38;;;;;;;0.50;0.10;;;;;;;;;;4129640;28;20061;-40
2023/02/21 05:14:40;;;;;;;0.00;0.00;;;;;;;;;;4147089;28;20116;-39
2023/02/21 05:16:41;;;;;;;0.10;0.10;;;;;;;;;;4144748;28;20565;-40
2023/02/21 05:18:45;;;;;;;0.00;0.00;;;;;;;;;;4134691;28;20113;-39
2023/02/21 05:20:47;;;;;;;0.10;0.10;;;;;;;;;;4146447;28;20057;-40
2023/02/21 05:22:48;;;;;;;0.10;0.10;;;;;;;;;;4146652;28;20065;-40
2023/02/21 05:24:50;;;;;;;0.20;0.10;;;;;;;;;;4146878;28;20334;-40
2023/02/21 05:26:52;;;;;;;0.10;0.10;;;;;;;;;;4147100;28;20049;-41
2023/02/21 05:28:54;;;;;;;0.22;0.10;;;;;;;;;;4129852;28;20058;-40
2023/02/21 05:30:55;;;;;;;0.57;0.17;;;;;;;;;;4147418;28;20054;-40
2023/02/21 05:32:56;;;;;;;0.20;0.10;;;;;;;;;;4146788;28;20080;-40
2023/02/21 05:34:57;;;;;;;0.17;0.15;;;;;;;;;;4147392;28;20062;-40
2023/02/21 05:36:58;;;;;;;0.00;0.00;;;;;;;;;;4146389;28;20084;-40
2023/02/21 05:39:00;;;;;;;0.30;0.10;;;;;;;;;;4147022;28;20057;-40
2023/02/21 05:41:01;;;;;;;0.22;0.10;;;;;;;;;;4146875;28;20113;-40
2023/02/21 05:43:02;;;;;;;0.20;0.10;;;;;;;;;;4147024;28;20461;-40
2023/02/21 05:45:05;;;;;;;0.20;0.20;;;;;;;;;;4129474;28;20138;-40
2023/02/21 05:47:07;;;;;;;0.10;0.10;;;;;;;;;;4146396;28;20061;-40
2023/02/21 05:49:08;;;;;;;0.20;0.20;;;;;;;;;;4146928;28;20053;-41
2023/02/21 05:51:09;;;;;;;0.32;0.10;;;;;;;;;;4133063;28;20064;-40
2023/02/21 05:53:11;;;;;;;0.55;0.20;;;;;;;;;;4146866;28;20053;-40
2023/02/21 05:55:12;;;;;;;0.10;0.10;;;;;;;;;;4146684;28;20100;-40
2023/02/21 05:57:14;;;;;;;1.70;0.17;;;;;;;;;;4146964;28;20050;-41
2023/02/21 05:59:17;;;;;;;0.80;0.10;;;;;;;;;;4146443;28;20058;-42
2023/02/21 06:01:19;;;;;;;0.10;0.10;;;;;;;;;;4123192;28;20120;-40
2023/02/21 06:03:20;;;;;;;0.60;0.20;;;;;;;;;;4145084;28;20120;-40
2023/02/21 06:05:22;;;;;;;1.15;0.10;;;;;;;;;;4145087;28;20092;-39
2023/02/21 06:07:24;;;;;;;0.52;0.22;;;;;;;;;;4126162;28;20100;-39
2023/02/21 06:09:25;;;;;;;0.52;0.20;;;;;;;;;;4126757;28;20182;-39
2023/02/21 06:11:29;;;;;;;0.32;0.10;;;;;;;;;;4144426;28;20065;-40
2023/02/21 06:13:31;;;;;;;1.85;0.20;;;;;;;;;;4126728;28;20065;-40
2023/02/21 06:15:32;;;;;;;0.30;0.20;;;;;;;;;;4144305;28;20161;-40
2023/02/21 06:17:35;;;;;;;0.20;0.10;;;;;;;;;;4146576;28;20100;-40
2023/02/21 06:19:37;;;;;;;0.55;0.20;;;;;;;;;;4153263;28;20101;-40
2023/02/21 06:21:40;;;;;;;0.68;0.20;;;;;;;;;;4144101;28;20061;-40
2023/02/21 06:23:42;;;;;;;0.40;0.10;;;;;;;;;;4127210;28;20113;-40
2023/02/21 06:25:44;;;;;;;0.20;0.20;;;;;;;;;;4126732;28;20058;-40
2023/02/21 06:27:45;;;;;;;0.40;0.10;;;;;;;;;;4144469;28;20433;-40
2023/02/21 06:29:46;;;;;;;0.57;0.20;;;;;;;;;;4144754;28;20054;-40
2023/02/21 06:31:47;;;;;;;1.23;0.20;;;;;;;;;;4144280;28;20516;-40
2023/02/21 06:33:49;;;;;;;0.35;0.20;;;;;;;;;;4125890;28;20121;-40
2023/02/21 06:35:51;;;;;;;0.52;0.10;;;;;;;;;;4143263;28;20108;-40
2023/02/21 06:37:52;;;;;;;0.22;0.15;;;;;;;;;;4140552;28;20124;-40
2023/02/21 06:39:54;;;;;;;1.20;0.22;;;;;;;;;;4143331;28;20115;-40
2023/02/21 06:41:56;;;;;;;0.98;0.30;;;;;;;;;;4140208;28;20062;-43
2023/02/21 06:43:58;;;;;;;2.78;0.28;;;;;;;;;;4142317;28;20417;-42
2023/02/21 06:46:00;;;;;;;0.32;0.28;;;;;;;;;;4135356;28;20073;-40
2023/02/21 06:48:01;;;;;;;1.70;0.20;;;;;;;;;;4149533;28;20123;-49
2023/02/21 06:50:02;;;;;;;0.32;0.20;;;;;;;;;;4145360;28;20065;-46
2023/02/21 06:52:04;;;;;;;1.05;0.30;;;;;;;;;;4143672;28;20057;-46
2023/02/21 06:54:09;;;;;;;0.40;0.20;;;;;;;;;;4120440;28;20073;-40
2023/02/21 06:56:10;;;;;;;0.30;0.20;;;;;;;;;;4142386;28;20054;-40
2023/02/21 06:58:12;;;;;;;0.30;0.20;;;;;;;;;;4142058;28;20647;-42
2023/02/21 07:00:15;;;;;;;0.43;0.30;;;;;;;;;;4121337;28;20062;-43
2023/02/21 07:02:18;;;;;;;1.08;0.20;;;;;;;;;;4138731;28;20054;-44
2023/02/21 07:04:19;;;;;;;2.05;0.30;;;;;;;;;;4125694;28;20081;-44
2023/02/21 07:06:20;;;;;;;0.52;0.28;;;;;;;;;;4143959;28;20187;-45
2023/02/21 07:08:23;;;;;;;1.48;0.30;;;;;;;;;;4107273;28;20146;-41
2023/02/21 07:10:25;;;;;;;0.10;0.10;;;;;;;;;;4141855;28;20501;-44
2023/02/21 07:12:26;;;;;;;0.52;0.30;;;;;;;;;;4144361;28;20156;-43
2023/02/21 07:14:27;;;;;;;0.20;0.20;;;;;;;;;;4128951;28;20475;-39
2023/02/21 07:16:28;;;;;;;0.90;0.30;;;;;;;;;;4118945;28;20120;-40
2023/02/21 07:18:30;;;;;;;1.00;0.22;;;;;;;;;;4135448;28;20386;-39
2023/02/21 07:20:32;;;;;;;0.22;0.20;;;;;;;;;;4127855;28;20545;-42
2023/02/21 07:22:33;;;;;;;0.73;0.30;;;;;;;;;;4125424;28;20057;-44
2023/02/21 07:24:34;;;;;;;2.28;0.30;;;;;;;;;;4130107;28;20049;-46
2023/02/21 07:26:36;;;;;;;1.05;0.45;;;;;;;;;;4126706;28;20050;-42
2023/02/21 07:28:38;;;;;;;0.75;0.20;;;;;;;;;;4103460;28;20050;-44
2023/02/21 07:30:39;;;;;;;0.88;0.30;;;;;;;;;;4132449;28;20054;-44
2023/02/21 07:32:41;;;;;;;0.20;0.20;;;;;;;;;;4108958;28;20058;-41
2023/02/21 07:34:43;;;;;;;0.80;0.30;;;;;;;;;;4132622;28;20050;-36
2023/02/21 07:36:45;;;;;;;1.30;0.30;;;;;;;;;;4111659;28;20062;-41
2023/02/21 07:38:46;;;;;;;1.67;0.57;;;;;;;;;;4125193;28;20146;-39
2023/02/21 07:40:48;;;;;;;0.70;0.32;;;;;;;;;;4121166;28;20395;-38
2023/02/21 07:42:49;;;;;;;0.80;0.32;;;;;;;;;;4135654;28;20050;-41
2023/02/21 07:44:58;;;;;;;0.93;0.40;;;;;;;;;;4130121;28;20505;-40
2023/02/21 07:46:59;;;;;;;2.67;0.70;;;;;;;;;;4112776;28;20053;-42
2023/02/21 07:49:00;;;;;;;0.20;0.20;;;;;;;;;;4132208;28;20679;-41
2023/02/21 07:51:02;;;;;;;0.73;0.20;;;;;;;;;;4136114;28;20108;-39
2023/02/21 07:53:04;;;;;;;1.58;0.30;;;;;;;;;;4131522;28;20657;-39
2023/02/21 07:55:05;;;;;;;0.68;0.40;;;;;;;;;;4128415;28;20111;-42
2023/02/21 07:57:07;;;;;;;1.33;0.32;;;;;;;;;;4124379;28;20460;-40
2023/02/21 07:59:08;;;;;;;0.80;0.38;;;;;;;;;;4124325;28;20101;-44
2023/02/21 08:01:10;;;;;;;1.13;0.20;;;;;;;;;;4107440;28;20058;-42
2023/02/21 08:03:12;;;;;;;1.38;0.50;;;;;;;;;;4120961;28;22239;-42
2023/02/21 08:05:15;;;;;;;0.50;0.28;;;;;;;;;;4129200;28;20134;-43
2023/02/21 08:07:16;;;;;;;0.25;0.25;;;;;;;;;;4117999;28;20119;-44
2023/02/21 08:09:17;;;;;;;0.50;0.30;;;;;;;;;;4133976;28;20112;-44
2023/02/21 08:11:18;;;;;;;0.52;0.40;;;;;;;;;;4132847;28;20053;-47
2023/02/21 08:13:19;;;;;;;1.25;0.30;;;;;;;;;;4109544;28;20061;-47
2023/02/21 08:15:21;;;;;;;1.02;0.85;;;;;;;;;;4121916;28;20127;-43
2023/02/21 08:17:23;;;;;;;0.20;0.13;;;;;;;;;;4123606;28;20462;-44
2023/02/21 08:19:25;;;;;;;2.72;0.40;;;;;;;;;;4126912;28;20154;-42
2023/02/21 08:21:26;;;;;;;2.10;0.35;;;;;;;;;;4121515;28;20466;-46
2023/02/21 08:23:28;;;;;;;0.45;0.30;;;;;;;;;;4121194;28;20602;-66
2023/02/21 08:25:29;;;;;;;1.17;0.32;;;;;;;;;;4107197;28;20058;-49
2023/02/21 08:27:30;;;;;;;1.17;0.25;;;;;;;;;;4122228;28;20391;-56
2023/02/21 08:29:32;;;;;;;3.22;0.32;;;;;;;;;;4125536;28;20054;-50
2023/02/21 08:31:35;;;;;;;2.58;0.32;;;;;;;;;;4117043;28;20058;-58
2023/02/21 08:33:36;;;;;;;0.82;0.30;;;;;;;;;;4115892;28;20058;-59
2023/02/21 08:35:37;;;;;;;1.75;0.45;;;;;;;;;;4125140;28;21002;-47
2023/02/21 08:37:44;;;;;;;1.23;0.50;;;;;;;;;;4110580;28;20414;-52
2023/02/21 08:39:46;;;;;;;0.65;0.30;;;;;;;;;;4109772;28;20721;-52
2023/02/21 08:41:49;;;;;;;1.05;0.40;;;;;;;;;;4104108;28;20746;-56
2023/02/21 08:43:51;;;;;;;0.47;0.40;;;;;;;;;;4085620;28;21360;-54
2023/02/21 08:45:52;;;;;;;1.65;0.40;;;;;;;;;;4127211;28;20567;-55
2023/02/21 08:47:54;;;;;;;0.63;0.40;;;;;;;;;;4112836;28;20138;-56
2023/02/21 08:49:55;;;;;;;1.90;0.40;;;;;;;;;;4118099;28;20541;-48
2023/02/21 08:51:56;;;;;;;1.27;0.38;;;;;;;;;;4116869;28;20655;-52
2023/02/21 08:53:58;;;;;;;0.80;0.50;;;;;;;;;;4118918;28;20132;-51
2023/02/21 08:55:59;;;;;;;1.35;0.38;;;;;;;;;;4126769;28;20774;-54
2023/02/21 08:58:00;;;;;;;0.45;0.45;;;;;;;;;;4103207;28;20101;-48
2023/02/21 09:00:05;;;;;;;0.45;0.28;;;;;;;;;;4121491;28;20053;-47
2023/02/21 09:02:11;;;;;;;1.60;0.38;;;;;;;;;;4123455;28;20497;-54
2023/02/21 09:04:12;;;;;;;0.30;0.30;;;;;;;;;;4116650;28;20623;-52
2023/02/21 09:06:32;;;;;;;0.55;0.30;;;;;;;;;;4118838;28;20045;-55
2023/02/21 09:08:35;;;;;;;0.40;0.40;;;;;;;;;;4108753;28;20132;-53
2023/02/21 09:12:57;;;;;;;0.68;0.43;;;;;;;;;;4124614;28;20693;-53
2023/02/21 09:14:58;;;;;;;0.45;0.30;;;;;;;;;;4127284;28;20455;-58
2023/02/21 09:17:00;;;;;;;0.40;0.40;;;;;;;;;;4084746;28;20050;-56
2023/02/21 09:19:05;;;;;;;0.38;0.38;;;;;;;;;;4122192;28;20066;-50
2023/02/21 09:21:07;;;;;;;1.20;0.45;;;;;;;;;;4121048;28;20057;-49
2023/02/21 09:23:08;;;;;;;0.40;0.30;;;;;;;;;;4119896;28;20057;-56
2023/02/21 09:25:12;;;;;;;0.47;0.40;;;;;;;;;;4125598;28;20716;-54
2023/02/21 09:27:16;;;;;;;0.38;0.35;;;;;;;;;;4123313;28;20116;-53
2023/02/21 09:29:18;;;;;;;0.35;0.32;;;;;;;;;;4121668;28;20629;-47
2023/02/21 09:31:20;;;;;;;1.85;0.40;;;;;;;;;;4124430;28;20058;-53
2023/02/21 09:33:21;;;;;;;2.22;0.60;;;;;;;;;;4111439;28;20054;-51
2023/02/21 09:35:22;;;;;;;1.60;0.60;;;;;;;;;;4123293;28;20749;-50
2023/02/21 09:37:24;;;;;;;0.43;0.30;;;;;;;;;;4118403;28;20058;-55
2023/02/21 09:39:26;;;;;;;0.88;0.50;;;;;;;;;;4121785;28;20519;-51
2023/02/21 09:41:27;;;;;;;0.80;0.50;;;;;;;;;;4102449;28;20108;-52
2023/02/21 09:43:37;;;;;;;0.70;0.47;;;;;;;;;;4113363;28;20136;-49
2023/02/21 09:45:38;;;;;;;0.60;0.50;;;;;;;;;;4109134;28;20877;-52
2023/02/21 09:47:40;;;;;;;0.77;0.55;;;;;;;;;;4102620;28;20054;-55
2023/02/21 09:49:42;;;;;;;0.40;0.38;;;;;;;;;;4122100;28;20050;-56
2023/02/21 09:51:44;;;;;;;0.65;0.50;;;;;;;;;;4118179;28;21076;-55
2023/02/21 09:53:47;;;;;;;2.55;0.50;;;;;;;;;;4108910;28;20102;-56
2023/02/21 09:55:50;;;;;;;0.88;0.50;;;;;;;;;;4111233;28;20058;-47
2023/02/21 09:57:52;;;;;;;0.55;0.45;;;;;;;;;;4091597;28;20050;-47
2023/02/21 09:59:53;;;;;;;0.80;0.50;;;;;;;;;;4110860;28;20974;-48
2023/02/21 10:02:08;;;;;;;1.27;0.55;;;;;;;;;;4116007;28;20065;-55
2023/02/21 10:04:29;;;;;;;0.68;0.50;;;;;;;;;;4120736;28;20547;-53
2023/02/21 10:06:41;;;;;;;2.08;0.60;;;;;;;;;;4109897;28;20156;-41
2023/02/21 10:08:52;;;;;;;1.95;0.40;;;;;;;;;;4101364;28;20096;-43
2023/02/21 10:11:00;;;;;;;3.90;0.52;;;;;;;;;;4085211;28;20741;-42
2023/02/21 10:13:20;;;;;;;0.60;0.60;;;;;;;;;;4124287;28;20481;-42
2023/02/21 10:15:33;;;;;;;;;;;;;;;;;;4131153;28;20058;-40
2023/02/21 10:17:42;;;;;;;1.08;0.40;;;;;;;;;;4126884;28;19925;-42
2023/02/21 10:19:44;;;;;;;2.13;0.80;;;;;;;;;;4126294;28;20481;-40
2023/02/21 10:21:47;;;;;;;0.70;0.50;;;;;;;;;;4106111;28;20739;-40
2023/02/21 10:23:50;;;;;;;1.58;0.52;;;;;;;;;;4118018;28;20065;-39
2023/02/21 10:25:57;;;;;;;1.10;0.50;;;;;;;;;;4119107;28;20060;-40
2023/02/21 10:27:59;;;;;;;0.60;0.47;;;;;;;;;;4118359;28;20116;-41
2023/02/21 10:30:04;;;;;;;1.83;0.70;;;;;;;;;;4114322;28;20069;-44
2023/02/21 10:32:07;;;;;;;0.73;0.50;;;;;;;;;;4085809;28;20071;-44
2023/02/21 10:34:23;;;;;;;1.08;0.60;;;;;;;;;;4123517;28;20083;-43
2023/02/21 10:36:25;;;;;;;0.60;0.50;;;;;;;;;;4107855;28;20096;-44
2023/02/21 10:38:26;;;;;;;0.60;0.50;;;;;;;;;;4113755;28;20343;-42
2023/02/21 10:40:57;;;;;;;0.75;0.50;;;;;;;;;;4123601;28;20068;-41
2023/02/21 10:43:38;;;;;;;0.63;0.57;;;;;;;;;;4129472;28;20433;-44
2023/02/21 10:45:53;;;;;;;0.93;0.70;;;;;;;;;;4124265;28;20058;-42
2023/02/21 10:48:09;;;;;;;0.85;0.68;;;;;;;;;;4113776;28;20185;-42
2023/02/21 10:50:11;;;;;;;1.48;0.70;;;;;;;;;;4126966;28;20442;-41
2023/02/21 10:52:17;;;;;;;0.75;0.40;;;;;;;;;;4127415;28;20062;-41
2023/02/21 10:54:21;;;;;;;0.80;0.68;;;;;;;;;;4123295;28;20067;-40
2023/02/21 10:56:24;;;;;;;1.02;0.60;;;;;;;;;;4111528;28;20058;-41
2023/02/21 10:58:26;;;;;;;0.60;0.60;;;;;;;;;;4112525;28;20129;-40
2023/02/21 11:00:33;;;;;;;1.25;0.93;;;;;;;;;;4124179;28;21517;-39
2023/02/21 11:02:40;;;;;;;1.27;0.88;;;;;;;;;;4134339;28;20100;-40
2023/02/21 11:04:42;;;;;;;0.73;0.70;;;;;;;;;;4134200;28;20058;-39
2023/02/21 11:06:46;;;;;;;2.47;0.60;;;;;;;;;;4136442;28;20072;-40
2023/02/21 11:08:48;;;;;;;0.70;0.57;;;;;;;;;;4135449;28;20414;-40
2023/02/21 11:10:53;;;;;;;1.63;0.98;;;;;;;;;;4135378;28;20486;-40
2023/02/21 11:13:15;;;;;;;1.25;0.77;;;;;;;;;;4127218;28;20054;-40
2023/02/21 11:15:18;;;;;;;1.20;0.70;;;;;;;;;;4115792;28;20058;-40
2023/02/21 11:17:22;;;;;;;0.80;0.50;;;;;;;;;;4132606;28;20100;-40
2023/02/21 11:19:23;;;;;;;0.80;0.68;;;;;;;;;;4105579;28;20632;-42
2023/02/21 11:21:24;;;;;;;1.15;0.60;;;;;;;;;;4131807;28;20104;-41
2023/02/21 11:23:29;;;;;;;0.82;0.65;;;;;;;;;;4135167;28;20061;-41
2023/02/21 11:25:40;;;;;;;0.60;0.60;;;;;;;;;;4135119;28;20054;-40
2023/02/21 11:27:42;;;;;;;0.70;0.50;;;;;;;;;;4129311;28;20104;-41
2023/02/21 11:29:47;;;;;;;0.70;0.60;;;;;;;;;;4108065;28;20062;-40
2023/02/21 11:31:49;;;;;;;0.70;0.70;;;;;;;;;;4108310;28;20125;-41
2023/02/21 11:33:58;;;;;;;3.15;0.77;;;;;;;;;;4118023;28;20120;-40
2023/02/21 11:36:12;;;;;;;0.70;0.60;;;;;;;;;;4115546;28;20521;-40
2023/02/21 11:39:00;;;;;;;1.00;0.88;;;;;;;;;;4125543;28;20137;-39
2023/02/21 11:41:14;;;;;;;0.60;0.50;;;;;;;;;;4069535;28;20056;-40
2023/02/21 11:43:31;;;;;;;1.98;0.60;;;;;;;;;;4065774;28;20055;-40
2023/02/21 11:45:33;;;;;;;0.70;0.65;;;;;;;;;;4092159;28;20057;-41
2023/02/21 11:47:41;;;;;;;0.77;0.70;;;;;;;;;;4126252;28;20112;-43
2023/02/21 11:50:09;;;;;;;0.60;0.60;;;;;;;;;;4113084;28;20066;-45
2023/02/21 11:52:14;;;;;;;0.60;0.60;;;;;;;;;;4130908;28;20129;-42
2023/02/21 11:54:25;;;;;;;0.98;0.68;;;;;;;;;;4106801;28;20062;-43
2023/02/21 11:56:26;;;;;;;1.00;0.60;;;;;;;;;;4121441;28;20852;-44
2023/02/21 11:58:37;;;;;;;0.88;0.70;;;;;;;;;;4124172;28;20058;-41
2023/02/21 12:01:04;;;;;;;1.10;0.70;;;;;;;;;;4108566;28;20195;-43
2023/02/21 12:03:29;;;;;;;2.42;0.63;;;;;;;;;;4098144;28;20168;-40
2023/02/21 12:05:55;;;;;;;1.17;0.70;;;;;;;;;;4118502;28;20133;-44
2023/02/21 12:08:18;;;;;;;2.45;0.77;;;;;;;;;;4108075;28;20089;-39
2023/02/21 12:10:37;;;;;;;2.70;0.68;;;;;;;;;;4125742;28;20147;-39
2023/02/21 12:12:53;;;;;;;1.05;0.63;;;;;;;;;;4126559;28;20446;-41
2023/02/21 12:15:05;;;;;;;0.82;0.60;;;;;;;;;;4128464;28;20151;-39
2023/02/21 12:17:34;;;;;;;3.50;0.60;;;;;;;;;;4123101;28;20054;-42
2023/02/21 12:20:03;;;;;;;1.15;0.85;;;;;;;;;;4125316;28;20159;-39
2023/02/21 12:22:32;;;;;;;2.00;0.60;;;;;;;;;;4109984;28;20054;-39
2023/02/21 12:24:34;;;;;;;0.77;0.60;;;;;;;;;;4120661;28;20117;-41
2023/02/21 12:26:59;;;;;;;1.13;0.90;;;;;;;;;;4123122;28;20054;-42
2023/02/21 12:29:03;;;;;;;0.60;0.60;;;;;;;;;;4102985;28;20101;-46
2023/02/21 12:31:15;;;;;;;1.23;0.70;;;;;;;;;;4111405;28;20063;-44
2023/02/21 12:33:43;;;;;;;0.95;0.70;;;;;;;;;;4107330;28;20419;-43
2023/02/21 12:36:01;;;;;;;1.27;0.70;;;;;;;;;;4109350;28;20050;-46
2023/02/21 12:38:24;;;;;;;0.90;0.70;;;;;;;;;;4114395;28;20050;-44
2023/02/21 12:40:41;;;;;;;0.60;0.52;;;;;;;;;;4105853;28;20414;-42
2023/02/21 12:42:51;;;;;;;0.77;0.60;;;;;;;;;;4124343;28;20061;-43
2023/02/21 12:45:18;;;;;;;0.93;0.68;;;;;;;;;;4118501;28;20061;-47
2023/02/21 12:47:27;;;;;;;0.52;0.52;;;;;;;;;;4117170;28;20050;-40
2023/02/21 12:49:47;;;;;;;0.60;0.60;;;;;;;;;;4093595;28;20069;-39
2023/02/21 12:52:03;;;;;;;;;;;;;;;;;;4121111;28;20490;-44
2023/02/21 12:54:10;;;;;;;1.05;0.60;;;;;;;;;;4098931;28;20609;-40
2023/02/21 12:56:21;;;;;;;1.40;0.70;;;;;;;;;;4122774;28;20054;-40
2023/02/21 12:58:42;;;;;;;1.15;0.65;;;;;;;;;;4104028;28;20058;-39
2023/02/21 13:00:53;;;;;;;0.50;0.50;;;;;;;;;;4098078;28;20109;-39
2023/02/21 13:03:05;;;;;;;2.83;0.60;;;;;;;;;;4088567;28;20573;-39
2023/02/21 13:05:16;;;;;;;2.90;0.70;;;;;;;;;;4100394;28;20058;-39
2023/02/21 13:07:27;;;;;;;1.20;0.70;;;;;;;;;;4104248;28;20054;-40
2023/02/21 13:09:50;;;;;;;0.75;0.65;;;;;;;;;;4107672;28;20057;-45
2023/02/21 13:12:07;;;;;;;1.65;0.73;;;;;;;;;;4109844;28;20139;-41
2023/02/21 13:14:12;;;;;;;1.17;0.75;;;;;;;;;;4116770;28;20115;-42
2023/02/21 13:16:14;;;;;;;1.13;0.57;;;;;;;;;;4105453;28;20058;-38
2023/02/21 13:18:20;;;;;;;1.02;0.80;;;;;;;;;;4101494;28;20054;-40
2023/02/21 13:20:24;;;;;;;0.93;0.77;;;;;;;;;;4102706;28;20640;-42
2023/02/21 13:25:57;;;;;;;1.17;0.60;;;;;;;;;;4276678;27;24501;-40
2023/02/21 13:28:09;;;;;;;2.05;0.60;;;;;;;;;;4262121;27;20118;-41
2023/02/21 13:30:16;;;;;;;0.68;0.68;;;;;;;;;;4266647;27;20485;-43
2023/02/21 13:32:21;;;;;;;0.68;0.50;;;;;;;;;;4262058;27;20053;-42
2023/02/21 13:34:24;;;;;;;0.50;0.50;;;;;;;;;;4232472;27;20050;-46
2023/02/21 13:36:38;;;;;;;0.70;0.70;;;;;;;;;;4263617;27;20540;-42
2023/02/21 13:38:39;;;;;;;0.63;0.50;;;;;;;;;;4265657;27;20120;-45
2023/02/21 13:41:16;;;;;;;0.85;0.75;;;;;;;;;;4249097;27;20174;-43
2023/02/21 13:43:19;;;;;;;0.43;0.40;;;;;;;;;;4217513;27;20137;-42
2023/02/21 13:45:22;;;;;;;1.15;0.60;;;;;;;;;;4269581;27;20054;-43
2023/02/21 13:47:24;;;;;;;2.63;0.60;;;;;;;;;;4272186;27;20540;-42
2023/02/21 13:49:46;;;;;;;0.63;0.60;;;;;;;;;;4272364;27;20096;-45
2023/02/21 13:51:51;;;;;;;0.63;0.63;;;;;;;;;;4271283;27;20499;-43
2023/02/21 13:54:06;;;;;;;1.08;0.90;;;;;;;;;;4269559;27;20046;-46
2023/02/21 13:56:07;;;;;;;1.30;0.80;;;;;;;;;;4270133;27;20049;-43
2023/02/21 13:58:15;;;;;;;0.50;0.50;;;;;;;;;;4267595;27;20665;-46
2023/02/21 14:00:25;;;;;;;2.38;0.75;;;;;;;;;;4250923;27;20490;-45
2023/02/21 14:02:31;;;;;;;0.68;0.52;;;;;;;;;;4252376;27;20453;-42
2023/02/21 14:04:57;;;;;;;0.75;0.75;;;;;;;;;;4257156;27;20046;-42
2023/02/21 14:06:58;;;;;;;2.67;0.80;;;;;;;;;;4255013;27;20061;-43
2023/02/21 14:09:04;;;;;;;2.25;0.47;;;;;;;;;;4258880;27;20498;-42
2023/02/21 14:11:05;;;;;;;0.90;0.50;;;;;;;;;;4259337;27;20264;-38
2023/02/21 14:13:16;;;;;;;0.98;0.75;;;;;;;;;;4234183;27;20103;-38
2023/02/21 14:15:18;;;;;;;2.05;0.50;;;;;;;;;;4254300;27;20176;-42
2023/02/21 14:17:26;;;;;;;0.50;0.30;;;;;;;;;;4257090;27;20050;-44
2023/02/21 14:19:30;;;;;;;0.80;0.65;;;;;;;;;;4245776;27;20560;-45
2023/02/21 14:21:35;;;;;;;0.57;0.57;;;;;;;;;;4257030;27;20058;-46
2023/02/21 14:23:41;;;;;;;0.55;0.50;;;;;;;;;;4252992;27;20061;-40
2023/02/21 14:25:53;;;;;;;1.80;0.70;;;;;;;;;;4253652;27;21893;-40
2023/02/21 14:27:54;;;;;;;1.00;0.80;;;;;;;;;;4248786;27;20407;-42
2023/02/21 14:29:59;;;;;;;0.65;0.50;;;;;;;;;;4252952;27;20085;-40
2023/02/21 14:32:03;;;;;;;0.68;0.68;;;;;;;;;;4245453;27;20049;-44
2023/02/21 14:34:04;;;;;;;1.00;0.75;;;;;;;;;;4251821;27;20489;-40
2023/02/21 14:36:08;;;;;;;1.77;0.73;;;;;;;;;;4239974;27;20357;-40
2023/02/21 14:38:15;;;;;;;1.75;0.70;;;;;;;;;;4244549;27;20703;-43
2023/02/21 14:40:27;;;;;;;0.90;0.60;;;;;;;;;;4243728;27;20743;-41
2023/02/21 14:42:31;;;;;;;1.45;0.80;;;;;;;;;;4231955;27;20686;-41
2023/02/21 14:44:41;;;;;;;0.70;0.50;;;;;;;;;;4242333;27;20046;-39
2023/02/21 14:46:48;;;;;;;0.70;0.52;;;;;;;;;;4226711;27;20038;-40
2023/02/21 14:49:07;;;;;;;0.82;0.70;;;;;;;;;;4240603;27;21102;-37
2023/02/21 14:51:22;;;;;;;1.20;0.70;;;;;;;;;;4239031;27;20091;-38
2023/02/21 14:53:42;;;;;;;2.13;0.70;;;;;;;;;;4240747;27;20461;-41
2023/02/21 14:55:55;;;;;;;0.63;0.47;;;;;;;;;;4247700;27;20046;-41
2023/02/21 14:58:04;;;;;;;2.13;0.90;;;;;;;;;;4235129;27;20042;-42
2023/02/21 15:00:17;;;;;;;1.10;0.73;;;;;;;;;;4242225;27;20076;-39